sensor_id;sensor_type;location;lat;lon;timestamp;P1;durP1;ratioP1;P2;durP2;ratioP2
15889;SDS011;8043;49.388;12.128;2023-07-22T00:01:46;9.50;;;2.63;;
15889;SDS011;8043;49.388;12.128;2023-07-22T00:06:48;4.92;;;2.95;;
15889;SDS011;8043;49.388;12.128;2023-07-22T00:11:50;5.57;;;2.80;;
15889;SDS011;8043;49.388;12.128;2023-07-22T00:16:52;3.87;;;2.30;;
15889;SDS011;8043;49.388;12.128;2023-07-22T00:21:55;9.23;;;3.20;;
15889;SDS011;8043;49.388;12.128;2023-07-22T00:26:57;4.30;;;2.80;;
15889;SDS011;8043;49.388;12.128;2023-07-22T00:31:59;6.47;;;2.60;;
15889;SDS011;8043;49.388;12.128;2023-07-22T00:42:03;3.67;;;2.80;;
15889;SDS011;8043;49.388;12.128;2023-07-22T00:47:07;5.45;;;2.87;;
15889;SDS011;8043;49.388;12.128;2023-07-22T00:52:09;5.10;;;2.80;;
15889;SDS011;8043;49.388;12.128;2023-07-22T01:02:13;9.23;;;3.08;;
15889;SDS011;8043;49.388;12.128;2023-07-22T01:13:12;5.55;;;2.50;;
15889;SDS011;8043;49.388;12.128;2023-07-22T01:18:14;6.15;;;3.70;;
15889;SDS011;8043;49.388;12.128;2023-07-22T01:28:18;8.68;;;2.67;;
15889;SDS011;8043;49.388;12.128;2023-07-22T01:33:24;4.85;;;2.95;;
15889;SDS011;8043;49.388;12.128;2023-07-22T01:38:28;3.65;;;2.40;;
15889;SDS011;8043;49.388;12.128;2023-07-22T01:43:30;4.10;;;3.13;;
15889;SDS011;8043;49.388;12.128;2023-07-22T01:48:32;5.03;;;3.20;;
15889;SDS011;8043;49.388;12.128;2023-07-22T01:53:34;3.87;;;2.73;;
15889;SDS011;8043;49.388;12.128;2023-07-22T01:58:36;6.30;;;3.42;;
15889;SDS011;8043;49.388;12.128;2023-07-22T02:03:38;4.27;;;2.73;;
15889;SDS011;8043;49.388;12.128;2023-07-22T02:08:41;3.12;;;2.67;;
15889;SDS011;8043;49.388;12.128;2023-07-22T02:13:43;6.65;;;2.90;;
15889;SDS011;8043;49.388;12.128;2023-07-22T02:18:45;7.57;;;3.37;;
15889;SDS011;8043;49.388;12.128;2023-07-22T02:23:48;3.00;;;2.27;;
15889;SDS011;8043;49.388;12.128;2023-07-22T02:33:51;5.58;;;2.47;;
15889;SDS011;8043;49.388;12.128;2023-07-22T02:38:53;8.77;;;2.83;;
15889;SDS011;8043;49.388;12.128;2023-07-22T02:43:56;5.80;;;3.30;;
15889;SDS011;8043;49.388;12.128;2023-07-22T02:48:58;6.40;;;3.10;;
15889;SDS011;8043;49.388;12.128;2023-07-22T02:54:00;6.15;;;2.98;;
15889;SDS011;8043;49.388;12.128;2023-07-22T02:59:04;6.80;;;3.17;;
15889;SDS011;8043;49.388;12.128;2023-07-22T03:04:06;10.03;;;4.30;;
15889;SDS011;8043;49.388;12.128;2023-07-22T03:09:08;7.97;;;3.05;;
15889;SDS011;8043;49.388;12.128;2023-07-22T03:14:11;5.65;;;3.40;;
15889;SDS011;8043;49.388;12.128;2023-07-22T03:19:13;5.17;;;2.20;;
15889;SDS011;8043;49.388;12.128;2023-07-22T03:24:16;5.50;;;2.90;;
15889;SDS011;8043;49.388;12.128;2023-07-22T03:29:18;7.47;;;3.25;;
15889;SDS011;8043;49.388;12.128;2023-07-22T03:39:21;7.30;;;3.00;;
15889;SDS011;8043;49.388;12.128;2023-07-22T03:44:24;6.92;;;2.98;;
15889;SDS011;8043;49.388;12.128;2023-07-22T03:49:26;5.85;;;3.10;;
15889;SDS011;8043;49.388;12.128;2023-07-22T03:54:28;6.15;;;3.10;;
15889;SDS011;8043;49.388;12.128;2023-07-22T03:59:31;4.15;;;2.90;;
15889;SDS011;8043;49.388;12.128;2023-07-22T04:04:34;4.23;;;3.10;;
15889;SDS011;8043;49.388;12.128;2023-07-22T04:09:36;4.67;;;2.95;;
15889;SDS011;8043;49.388;12.128;2023-07-22T04:14:39;5.08;;;3.02;;
15889;SDS011;8043;49.388;12.128;2023-07-22T04:24:45;5.28;;;2.80;;
15889;SDS011;8043;49.388;12.128;2023-07-22T04:29:49;5.40;;;2.98;;
15889;SDS011;8043;49.388;12.128;2023-07-22T04:34:51;12.20;;;3.10;;
15889;SDS011;8043;49.388;12.128;2023-07-22T04:39:54;6.83;;;3.40;;
15889;SDS011;8043;49.388;12.128;2023-07-22T04:44:56;5.08;;;2.87;;
15889;SDS011;8043;49.388;12.128;2023-07-22T04:49:59;7.23;;;3.40;;
15889;SDS011;8043;49.388;12.128;2023-07-22T04:55:01;6.10;;;3.30;;
15889;SDS011;8043;49.388;12.128;2023-07-22T05:00:05;4.53;;;2.40;;
15889;SDS011;8043;49.388;12.128;2023-07-22T05:05:10;5.30;;;3.08;;
15889;SDS011;8043;49.388;12.128;2023-07-22T05:10:12;6.70;;;2.65;;
15889;SDS011;8043;49.388;12.128;2023-07-22T05:15:14;5.03;;;2.75;;
15889;SDS011;8043;49.388;12.128;2023-07-22T05:20:17;5.93;;;3.13;;
15889;SDS011;8043;49.388;12.128;2023-07-22T05:25:19;6.20;;;3.20;;
15889;SDS011;8043;49.388;12.128;2023-07-22T05:35:22;3.75;;;2.15;;
15889;SDS011;8043;49.388;12.128;2023-07-22T05:40:25;3.52;;;2.30;;
15889;SDS011;8043;49.388;12.128;2023-07-22T05:45:29;4.05;;;2.65;;
15889;SDS011;8043;49.388;12.128;2023-07-22T05:50:31;7.57;;;2.93;;
15889;SDS011;8043;49.388;12.128;2023-07-22T05:55:33;7.07;;;2.37;;
15889;SDS011;8043;49.388;12.128;2023-07-22T06:05:38;3.85;;;2.50;;
15889;SDS011;8043;49.388;12.128;2023-07-22T06:10:40;5.33;;;2.65;;
15889;SDS011;8043;49.388;12.128;2023-07-22T06:20:44;11.43;;;3.40;;
15889;SDS011;8043;49.388;12.128;2023-07-22T06:25:47;6.37;;;2.92;;
15889;SDS011;8043;49.388;12.128;2023-07-22T06:30:49;4.78;;;2.92;;
15889;SDS011;8043;49.388;12.128;2023-07-22T06:35:51;8.58;;;2.65;;
15889;SDS011;8043;49.388;12.128;2023-07-22T06:40:53;10.30;;;2.33;;
15889;SDS011;8043;49.388;12.128;2023-07-22T06:45:56;5.80;;;2.95;;
15889;SDS011;8043;49.388;12.128;2023-07-22T06:50:58;5.85;;;3.20;;
15889;SDS011;8043;49.388;12.128;2023-07-22T06:56:00;7.60;;;3.22;;
15889;SDS011;8043;49.388;12.128;2023-07-22T07:01:02;3.83;;;3.08;;
15889;SDS011;8043;49.388;12.128;2023-07-22T07:06:05;10.35;;;3.35;;
15889;SDS011;8043;49.388;12.128;2023-07-22T07:11:07;4.17;;;2.62;;
15889;SDS011;8043;49.388;12.128;2023-07-22T07:16:25;5.80;;;2.70;;
15889;SDS011;8043;49.388;12.128;2023-07-22T07:21:28;4.53;;;2.83;;
15889;SDS011;8043;49.388;12.128;2023-07-22T07:26:30;6.30;;;3.12;;
15889;SDS011;8043;49.388;12.128;2023-07-22T07:31:33;7.30;;;3.23;;
15889;SDS011;8043;49.388;12.128;2023-07-22T07:41:36;5.53;;;3.10;;
15889;SDS011;8043;49.388;12.128;2023-07-22T07:46:39;7.93;;;2.73;;
15889;SDS011;8043;49.388;12.128;2023-07-22T07:56:43;4.30;;;2.30;;
15889;SDS011;8043;49.388;12.128;2023-07-22T08:01:45;5.55;;;3.47;;
15889;SDS011;8043;49.388;12.128;2023-07-22T08:06:47;5.70;;;2.90;;
15889;SDS011;8043;49.388;12.128;2023-07-22T08:11:49;4.72;;;3.25;;
15889;SDS011;8043;49.388;12.128;2023-07-22T08:16:52;3.47;;;2.27;;
15889;SDS011;8043;49.388;12.128;2023-07-22T08:22:00;9.10;;;2.72;;
15889;SDS011;8043;49.388;12.128;2023-07-22T08:26:58;4.33;;;2.72;;
15889;SDS011;8043;49.388;12.128;2023-07-22T08:32:00;3.55;;;2.45;;
15889;SDS011;8043;49.388;12.128;2023-07-22T08:37:03;12.90;;;3.17;;
15889;SDS011;8043;49.388;12.128;2023-07-22T08:42:05;6.97;;;2.65;;
15889;SDS011;8043;49.388;12.128;2023-07-22T08:47:07;2.47;;;2.02;;
15889;SDS011;8043;49.388;12.128;2023-07-22T08:52:13;6.05;;;3.00;;
15889;SDS011;8043;49.388;12.128;2023-07-22T08:57:16;3.83;;;2.62;;
15889;SDS011;8043;49.388;12.128;2023-07-22T09:02:19;5.15;;;2.60;;
15889;SDS011;8043;49.388;12.128;2023-07-22T09:07:21;5.33;;;2.85;;
15889;SDS011;8043;49.388;12.128;2023-07-22T09:12:24;6.80;;;2.90;;
15889;SDS011;8043;49.388;12.128;2023-07-22T09:17:26;3.77;;;2.10;;
15889;SDS011;8043;49.388;12.128;2023-07-22T09:22:29;6.45;;;2.77;;
15889;SDS011;8043;49.388;12.128;2023-07-22T09:27:32;6.00;;;2.55;;
15889;SDS011;8043;49.388;12.128;2023-07-22T09:32:35;3.60;;;2.42;;
15889;SDS011;8043;49.388;12.128;2023-07-22T09:37:38;6.67;;;3.30;;
15889;SDS011;8043;49.388;12.128;2023-07-22T09:47:44;3.97;;;2.23;;
15889;SDS011;8043;49.388;12.128;2023-07-22T09:52:57;7.87;;;2.30;;
15889;SDS011;8043;49.388;12.128;2023-07-22T09:58:00;5.78;;;2.65;;
15889;SDS011;8043;49.388;12.128;2023-07-22T10:03:03;3.75;;;2.37;;
15889;SDS011;8043;49.388;12.128;2023-07-22T10:08:07;6.33;;;2.02;;
15889;SDS011;8043;49.388;12.128;2023-07-22T10:13:10;4.40;;;2.23;;
15889;SDS011;8043;49.388;12.128;2023-07-22T10:18:12;3.45;;;2.50;;
15889;SDS011;8043;49.388;12.128;2023-07-22T10:23:17;3.15;;;2.02;;
15889;SDS011;8043;49.388;12.128;2023-07-22T10:28:19;4.35;;;2.58;;
15889;SDS011;8043;49.388;12.128;2023-07-22T10:33:22;3.50;;;2.08;;
15889;SDS011;8043;49.388;12.128;2023-07-22T10:38:26;13.08;;;2.52;;
15889;SDS011;8043;49.388;12.128;2023-07-22T10:43:32;3.00;;;1.80;;
15889;SDS011;8043;49.388;12.128;2023-07-22T10:48:35;3.42;;;1.67;;
15889;SDS011;8043;49.388;12.128;2023-07-22T10:53:45;2.47;;;1.70;;
15889;SDS011;8043;49.388;12.128;2023-07-22T11:14:47;3.22;;;1.60;;
15889;SDS011;8043;49.388;12.128;2023-07-22T11:19:50;7.22;;;1.75;;
15889;SDS011;8043;49.388;12.128;2023-07-22T11:24:52;5.42;;;1.77;;
15889;SDS011;8043;49.388;12.128;2023-07-22T11:29:56;2.37;;;1.50;;
15889;SDS011;8043;49.388;12.128;2023-07-22T11:35:01;4.42;;;1.70;;
15889;SDS011;8043;49.388;12.128;2023-07-22T11:40:03;7.53;;;2.65;;
15889;SDS011;8043;49.388;12.128;2023-07-22T11:45:06;2.92;;;1.87;;
15889;SDS011;8043;49.388;12.128;2023-07-22T11:50:08;6.45;;;2.00;;
15889;SDS011;8043;49.388;12.128;2023-07-22T11:55:11;4.70;;;2.08;;
15889;SDS011;8043;49.388;12.128;2023-07-22T12:05:21;1.72;;;1.60;;
15889;SDS011;8043;49.388;12.128;2023-07-22T12:10:23;4.58;;;1.75;;
15889;SDS011;8043;49.388;12.128;2023-07-22T12:15:26;2.55;;;1.50;;
15889;SDS011;8043;49.388;12.128;2023-07-22T12:20:29;1.67;;;1.50;;
15889;SDS011;8043;49.388;12.128;2023-07-22T12:25:33;4.03;;;1.67;;
15889;SDS011;8043;49.388;12.128;2023-07-22T12:35:38;3.62;;;1.75;;
15889;SDS011;8043;49.388;12.128;2023-07-22T12:40:40;3.92;;;1.52;;
15889;SDS011;8043;49.388;12.128;2023-07-22T12:45:42;5.62;;;1.70;;
15889;SDS011;8043;49.388;12.128;2023-07-22T12:50:44;7.40;;;1.35;;
15889;SDS011;8043;49.388;12.128;2023-07-22T12:55:48;2.98;;;1.50;;
15889;SDS011;8043;49.388;12.128;2023-07-22T13:00:51;7.90;;;1.80;;
15889;SDS011;8043;49.388;12.128;2023-07-22T13:05:53;1.42;;;1.27;;
15889;SDS011;8043;49.388;12.128;2023-07-22T13:15:56;1.77;;;1.40;;
15889;SDS011;8043;49.388;12.128;2023-07-22T13:20:59;2.80;;;1.83;;
15889;SDS011;8043;49.388;12.128;2023-07-22T13:26:01;3.52;;;1.82;;
15889;SDS011;8043;49.388;12.128;2023-07-22T13:36:05;4.73;;;1.70;;
15889;SDS011;8043;49.388;12.128;2023-07-22T13:41:09;4.50;;;1.50;;
15889;SDS011;8043;49.388;12.128;2023-07-22T13:51:13;2.47;;;1.62;;
15889;SDS011;8043;49.388;12.128;2023-07-22T13:56:15;6.03;;;2.37;;
15889;SDS011;8043;49.388;12.128;2023-07-22T14:06:19;3.17;;;1.57;;
15889;SDS011;8043;49.388;12.128;2023-07-22T14:11:21;1.87;;;1.20;;
15889;SDS011;8043;49.388;12.128;2023-07-22T14:16:23;4.87;;;1.80;;
15889;SDS011;8043;49.388;12.128;2023-07-22T14:26:27;2.77;;;1.80;;
15889;SDS011;8043;49.388;12.128;2023-07-22T14:31:29;2.52;;;1.27;;
15889;SDS011;8043;49.388;12.128;2023-07-22T14:36:31;7.62;;;2.50;;
15889;SDS011;8043;49.388;12.128;2023-07-22T14:41:33;2.45;;;1.37;;
15889;SDS011;8043;49.388;12.128;2023-07-22T14:51:37;3.93;;;1.73;;
15889;SDS011;8043;49.388;12.128;2023-07-22T14:56:39;4.30;;;1.82;;
15889;SDS011;8043;49.388;12.128;2023-07-22T15:01:42;4.30;;;1.55;;
15889;SDS011;8043;49.388;12.128;2023-07-22T15:06:44;3.27;;;1.75;;
15889;SDS011;8043;49.388;12.128;2023-07-22T15:11:46;15.50;;;2.00;;
15889;SDS011;8043;49.388;12.128;2023-07-22T15:21:50;7.10;;;1.70;;
15889;SDS011;8043;49.388;12.128;2023-07-22T15:26:53;6.63;;;1.33;;
15889;SDS011;8043;49.388;12.128;2023-07-22T15:31:55;3.00;;;1.82;;
15889;SDS011;8043;49.388;12.128;2023-07-22T15:36:57;2.15;;;1.50;;
15889;SDS011;8043;49.388;12.128;2023-07-22T15:42:00;2.33;;;1.15;;
15889;SDS011;8043;49.388;12.128;2023-07-22T15:47:02;1.57;;;1.00;;
15889;SDS011;8043;49.388;12.128;2023-07-22T15:52:05;2.77;;;1.40;;
15889;SDS011;8043;49.388;12.128;2023-07-22T15:57:07;3.15;;;1.32;;
15889;SDS011;8043;49.388;12.128;2023-07-22T16:07:11;2.97;;;1.60;;
15889;SDS011;8043;49.388;12.128;2023-07-22T16:12:13;2.65;;;1.50;;
15889;SDS011;8043;49.388;12.128;2023-07-22T16:17:15;2.60;;;1.30;;
15889;SDS011;8043;49.388;12.128;2023-07-22T16:27:19;1.67;;;1.30;;
15889;SDS011;8043;49.388;12.128;2023-07-22T16:32:21;3.12;;;1.27;;
15889;SDS011;8043;49.388;12.128;2023-07-22T16:37:23;3.77;;;1.50;;
15889;SDS011;8043;49.388;12.128;2023-07-22T16:47:27;3.10;;;1.57;;
15889;SDS011;8043;49.388;12.128;2023-07-22T16:52:29;2.10;;;1.00;;
15889;SDS011;8043;49.388;12.128;2023-07-22T16:57:31;2.05;;;1.25;;
15889;SDS011;8043;49.388;12.128;2023-07-22T17:02:33;6.35;;;1.70;;
15889;SDS011;8043;49.388;12.128;2023-07-22T17:07:36;2.52;;;1.62;;
15889;SDS011;8043;49.388;12.128;2023-07-22T17:12:40;3.27;;;1.60;;
15889;SDS011;8043;49.388;12.128;2023-07-22T17:27:46;9.90;;;1.30;;
15889;SDS011;8043;49.388;12.128;2023-07-22T17:32:48;2.12;;;1.27;;
15889;SDS011;8043;49.388;12.128;2023-07-22T17:37:52;4.70;;;1.60;;
15889;SDS011;8043;49.388;12.128;2023-07-22T17:47:55;2.15;;;1.40;;
15889;SDS011;8043;49.388;12.128;2023-07-22T17:57:59;8.58;;;1.72;;
15889;SDS011;8043;49.388;12.128;2023-07-22T18:08:03;3.23;;;0.97;;
15889;SDS011;8043;49.388;12.128;2023-07-22T18:13:06;5.65;;;1.40;;
15889;SDS011;8043;49.388;12.128;2023-07-22T18:18:08;5.30;;;1.30;;
15889;SDS011;8043;49.388;12.128;2023-07-22T18:23:10;10.78;;;1.50;;
15889;SDS011;8043;49.388;12.128;2023-07-22T18:33:14;4.72;;;1.25;;
15889;SDS011;8043;49.388;12.128;2023-07-22T18:38:17;1.80;;;1.30;;
15889;SDS011;8043;49.388;12.128;2023-07-22T18:43:19;4.42;;;1.15;;
15889;SDS011;8043;49.388;12.128;2023-07-22T18:48:21;2.98;;;1.60;;
15889;SDS011;8043;49.388;12.128;2023-07-22T18:58:25;4.72;;;1.37;;
15889;SDS011;8043;49.388;12.128;2023-07-22T19:03:27;2.50;;;1.15;;
15889;SDS011;8043;49.388;12.128;2023-07-22T19:08:31;2.35;;;1.52;;
15889;SDS011;8043;49.388;12.128;2023-07-22T19:13:33;2.08;;;1.67;;
15889;SDS011;8043;49.388;12.128;2023-07-22T19:18:36;2.22;;;1.37;;
15889;SDS011;8043;49.388;12.128;2023-07-22T19:23:38;2.33;;;1.42;;
15889;SDS011;8043;49.388;12.128;2023-07-22T19:28:40;5.20;;;1.27;;
15889;SDS011;8043;49.388;12.128;2023-07-22T19:33:42;3.60;;;1.50;;
15889;SDS011;8043;49.388;12.128;2023-07-22T19:38:44;5.12;;;1.57;;
15889;SDS011;8043;49.388;12.128;2023-07-22T19:43:47;2.58;;;1.50;;
15889;SDS011;8043;49.388;12.128;2023-07-22T19:48:49;2.27;;;1.40;;
15889;SDS011;8043;49.388;12.128;2023-07-22T19:53:51;4.78;;;1.52;;
15889;SDS011;8043;49.388;12.128;2023-07-22T19:58:53;2.87;;;1.52;;
15889;SDS011;8043;49.388;12.128;2023-07-22T20:03:56;3.35;;;1.67;;
15889;SDS011;8043;49.388;12.128;2023-07-22T20:08:58;4.87;;;1.65;;
15889;SDS011;8043;49.388;12.128;2023-07-22T20:14:00;9.60;;;1.87;;
15889;SDS011;8043;49.388;12.128;2023-07-22T20:19:04;5.60;;;1.98;;
15889;SDS011;8043;49.388;12.128;2023-07-22T20:24:06;4.25;;;2.22;;
15889;SDS011;8043;49.388;12.128;2023-07-22T20:34:10;9.13;;;2.90;;
15889;SDS011;8043;49.388;12.128;2023-07-22T20:39:12;3.27;;;2.30;;
15889;SDS011;8043;49.388;12.128;2023-07-22T20:44:15;12.47;;;2.47;;
15889;SDS011;8043;49.388;12.128;2023-07-22T20:49:17;8.67;;;2.60;;
15889;SDS011;8043;49.388;12.128;2023-07-22T20:54:19;6.95;;;3.15;;
15889;SDS011;8043;49.388;12.128;2023-07-22T21:04:23;4.35;;;2.90;;
15889;SDS011;8043;49.388;12.128;2023-07-22T21:09:25;11.18;;;2.35;;
15889;SDS011;8043;49.388;12.128;2023-07-22T21:19:29;5.87;;;2.98;;
15889;SDS011;8043;49.388;12.128;2023-07-22T21:24:31;5.60;;;3.27;;
15889;SDS011;8043;49.388;12.128;2023-07-22T21:29:33;10.15;;;3.55;;
15889;SDS011;8043;49.388;12.128;2023-07-22T21:34:36;20.08;;;3.60;;
15889;SDS011;8043;49.388;12.128;2023-07-22T21:39:38;7.58;;;2.62;;
15889;SDS011;8043;49.388;12.128;2023-07-22T21:44:40;4.92;;;2.40;;
15889;SDS011;8043;49.388;12.128;2023-07-22T21:49:42;11.20;;;2.67;;
15889;SDS011;8043;49.388;12.128;2023-07-22T21:54:45;23.62;;;3.10;;
15889;SDS011;8043;49.388;12.128;2023-07-22T21:59:47;6.20;;;3.35;;
15889;SDS011;8043;49.388;12.128;2023-07-22T22:09:53;6.90;;;2.90;;
15889;SDS011;8043;49.388;12.128;2023-07-22T22:14:57;7.20;;;3.42;;
15889;SDS011;8043;49.388;12.128;2023-07-22T22:19:59;8.95;;;2.40;;
15889;SDS011;8043;49.388;12.128;2023-07-22T22:25:02;9.43;;;2.40;;
15889;SDS011;8043;49.388;12.128;2023-07-22T22:30:05;3.40;;;1.95;;
15889;SDS011;8043;49.388;12.128;2023-07-22T22:35:08;5.22;;;2.30;;
15889;SDS011;8043;49.388;12.128;2023-07-22T22:40:11;10.13;;;2.30;;
15889;SDS011;8043;49.388;12.128;2023-07-22T22:50:15;6.58;;;2.50;;
15889;SDS011;8043;49.388;12.128;2023-07-22T22:55:17;6.75;;;2.50;;
15889;SDS011;8043;49.388;12.128;2023-07-22T23:00:19;8.50;;;3.40;;
15889;SDS011;8043;49.388;12.128;2023-07-22T23:10:23;9.98;;;2.52;;
15889;SDS011;8043;49.388;12.128;2023-07-22T23:20:27;4.42;;;2.50;;
15889;SDS011;8043;49.388;12.128;2023-07-22T23:25:29;5.60;;;2.58;;
15889;SDS011;8043;49.388;12.128;2023-07-22T23:30:31;5.12;;;2.15;;
15889;SDS011;8043;49.388;12.128;2023-07-22T23:40:35;5.80;;;2.55;;
15889;SDS011;8043;49.388;12.128;2023-07-22T23:45:38;5.10;;;2.42;;
15889;SDS011;8043;49.388;12.128;2023-07-22T23:50:40;6.87;;;2.80;;
15889;SDS011;8043;49.388;12.128;2023-07-22T23:55:42;11.07;;;2.80;;
